CWCA

Cartwright Airport

Cartwright, Canada
METAR CWCA 200500Z 29014G20KT 15SM OVC020 04/01 A2926 RMK SC8 SLP912
Observed Flight Rules
Jun-20 @ 05:00 UTC (44 minutes ago) Marginal Visual Flight Rules
Wind Visibility Clouds
290° at 14 knots
 Gusting to 20 knots
15 miles
  • Overcast at 2,000' AGL
Temperatures Readings
Current 4°C / 39°F
Dewpoint 1°C / 34°F
Humidity 81%
Altimeter 29.26" Hg
Pressure 991.2 hPa
Elevation 14
METAR CWCA 200500Z 29014G20KT 15SM OVC020 04/01 A2926 RMK SC8 SLP912
Observed Flight Rules
Jun-20 @ 05:00 UTC
(44 minutes ago)
MVFR
Wind Visibility
290° at 14 knots
 Gusting to 20 knots
15 miles
Clouds
  • Overcast at 2,000' AGL
Temperature Dewpoint
4°C / 39°F 1°C / 34°F
Humidity Altimeter Pressure
81% 29.26" Hg 991.2 hPa